Time;durP1;ratioP1;P1;durP2;ratioP2;P2;SDS_P1;SDS_P2;PMS_P1;PMS_P2;Temp;Humidity;BMP_temperature;BMP_pressure;BME280_temperature;BME280_humidity;BME280_pressure;Samples;Min_cycle;Max_cycle;Signal;HPM_P1;HPM_P2
2021/05/29 00:01:02;;;;;;;;;;;8.50;99.90;;;;;;10571322;28;19924;-70
2021/05/29 00:06:04;;;;;;;;;;;8.50;99.90;;;;;;10571977;28;19923;-69
2021/05/29 00:11:06;;;;;;;;;;;8.30;99.90;;;;;;10570840;28;19924;-70
2021/05/29 00:16:09;;;;;;;;;;;8.10;99.90;;;;;;10571715;28;20044;-70
2021/05/29 00:21:12;;;;;;;;;;;8.10;99.90;;;;;;10571398;28;19966;-70
2021/05/29 00:26:14;;;;;;;;;;;8.20;99.90;;;;;;10571791;28;20022;-70
2021/05/29 00:31:16;;;;;;;;;;;8.10;99.90;;;;;;10570821;28;19934;-70
2021/05/29 00:36:18;;;;;;;;;;;8.10;99.90;;;;;;10571218;28;19924;-70
2021/05/29 00:41:20;;;;;;;;;;;8.10;99.90;;;;;;10570220;28;19946;-70
2021/05/29 00:46:22;;;;;;;;;;;7.90;99.90;;;;;;10569603;28;20367;-70
2021/05/29 00:51:24;;;;;;;;;;;7.70;99.90;;;;;;10570381;28;20291;-70
2021/05/29 00:56:25;;;;;;;;;;;7.80;99.90;;;;;;10569071;28;19946;-70
2021/05/29 01:01:27;;;;;;;;;;;7.80;99.90;;;;;;10568971;28;20513;-70
2021/05/29 01:06:29;;;;;;;;;;;7.80;99.90;;;;;;10569031;28;19977;-69
2021/05/29 01:11:31;;;;;;;;;;;7.80;99.90;;;;;;10575122;28;19928;-70
2021/05/29 01:21:38;;;;;;;;;;;7.60;99.90;;;;;;10578467;28;19934;-70
2021/05/29 01:26:40;;;;;;;;;;;7.50;99.90;;;;;;10577905;28;20072;-70
2021/05/29 01:31:46;;;;;;;;;;;7.50;99.90;;;;;;10578038;28;19927;-70
2021/05/29 01:36:50;;;;;;;;;;;7.40;99.90;;;;;;10577470;28;19927;-70
2021/05/29 01:41:52;;;;;;;;;;;7.40;99.90;;;;;;10577514;28;19923;-70
2021/05/29 01:46:55;;;;;;;;;;;7.30;99.90;;;;;;10576611;28;20001;-68
2021/05/29 01:51:56;;;;;;;;;;;7.30;99.90;;;;;;10576279;28;20315;-70
2021/05/29 01:56:59;;;;;;;;;;;7.20;99.90;;;;;;10576899;28;19928;-70
2021/05/29 02:02:00;;;;;;;;;;;7.10;99.90;;;;;;10577881;28;19923;-70
2021/05/29 02:07:02;;;;;;;;;;;7.20;99.90;;;;;;10583967;28;20002;-70
2021/05/29 02:12:04;;;;;;;;;;;7.20;99.90;;;;;;10582260;28;20014;-70
2021/05/29 02:17:06;;;;;;;;;;;7.10;99.90;;;;;;10583527;28;19931;-70
2021/05/29 02:22:08;;;;;;;;;;;7.10;99.90;;;;;;10581910;28;19935;-68
2021/05/29 02:27:10;;;;;;;;;;;7.10;99.90;;;;;;10583564;28;19928;-70
2021/05/29 02:32:11;;;;;;;;;;;7.10;99.90;;;;;;10583428;28;20023;-70
2021/05/29 02:37:13;;;;;;;;;;;7.00;99.90;;;;;;10583197;28;20022;-70
2021/05/29 02:42:15;;;;;;;;;;;6.90;99.90;;;;;;10583034;28;19967;-70
2021/05/29 02:47:17;;;;;;;;;;;6.90;99.90;;;;;;10582303;28;20324;-70
2021/05/29 02:52:18;;;;;;;;;;;6.80;99.90;;;;;;10582834;28;20034;-70
2021/05/29 02:57:20;;;;;;;;;;;6.80;99.90;;;;;;10582229;28;19924;-69
2021/05/29 03:02:22;;;;;;;;;;;6.70;99.90;;;;;;10580737;28;19938;-70
2021/05/29 03:07:24;;;;;;;;;;;6.70;99.90;;;;;;10576524;28;19935;-70
2021/05/29 03:12:26;;;;;;;;;;;6.70;99.90;;;;;;10574414;28;19930;-69
2021/05/29 03:17:27;;;;;;;;;;;6.60;99.90;;;;;;10574477;28;20369;-69
2021/05/29 03:22:29;;;;;;;;;;;6.60;99.90;;;;;;10574178;28;20264;-70
2021/05/29 03:27:31;;;;;;;;;;;6.40;99.90;;;;;;10572833;28;19928;-70
2021/05/29 03:32:33;;;;;;;;;;;6.50;99.90;;;;;;10572781;28;19969;-70
2021/05/29 03:37:35;;;;;;;;;;;6.50;99.90;;;;;;10573551;28;20031;-69
2021/05/29 03:42:37;;;;;;;;;;;6.50;99.90;;;;;;10573553;28;19927;-69
2021/05/29 03:47:43;;;;;;;;;;;6.40;99.90;;;;;;10573343;28;19924;-70
2021/05/29 03:52:45;;;;;;;;;;;6.30;99.90;;;;;;10573198;28;20679;-70
2021/05/29 03:57:47;;;;;;;;;;;6.40;99.90;;;;;;10572827;28;20537;-70
2021/05/29 04:02:50;;;;;;;;;;;6.50;99.90;;;;;;10572539;28;19930;-69
2021/05/29 04:07:52;;;;;;;;;;;6.70;99.90;;;;;;10573073;28;19955;-69
2021/05/29 04:12:55;;;;;;;;;;;6.80;99.90;;;;;;10571926;27;20151;-70
2021/05/29 04:17:57;;;;;;;;;;;7.00;99.90;;;;;;10572535;28;19927;-69
2021/05/29 04:22:58;;;;;;;;;;;8.10;99.90;;;;;;10571570;28;19927;-70
2021/05/29 04:28:00;;;;;;;;;;;9.90;99.90;;;;;;10572395;28;19931;-70
2021/05/29 04:33:02;;;;;;;;;;;10.70;99.90;;;;;;10571451;28;20371;-70
2021/05/29 04:38:04;;;;;;;;;;;12.80;99.90;;;;;;10571455;28;19931;-70
2021/05/29 04:43:05;;;;;;;;;;;15.50;99.90;;;;;;10571428;28;20038;-70
2021/05/29 04:48:08;;;;;;;;;;;17.60;91.50;;;;;;10571439;28;19923;-70
2021/05/29 04:53:10;;;;;;;;;;;19.80;76.20;;;;;;10571015;28;19928;-71
2021/05/29 04:58:11;;;;;;;;;;;21.40;64.00;;;;;;10571343;28;20018;-71
2021/05/29 05:03:13;;;;;;;;;;;22.20;55.20;;;;;;10570773;28;19946;-71
2021/05/29 05:08:15;;;;;;;;;;;21.90;54.30;;;;;;10571311;28;19938;-71
2021/05/29 05:13:17;;;;;;;;;;;22.50;54.20;;;;;;10570021;28;20298;-71
2021/05/29 05:18:22;;;;;;;;;;;23.40;51.10;;;;;;10570542;28;20010;-71
2021/05/29 05:23:24;;;;;;;;;;;23.60;48.80;;;;;;10570446;28;20014;-71
2021/05/29 05:28:28;;;;;;;;;;;23.20;48.20;;;;;;10570636;28;19946;-71
2021/05/29 05:33:45;;;;;;;;;;;19.70;52.70;;;;;;10570169;28;20375;-70
2021/05/29 05:38:46;;;;;;;;;;;16.60;59.20;;;;;;10570288;28;19924;-70
2021/05/29 05:43:49;;;;;;;;;;;14.60;67.00;;;;;;10570389;28;20395;-70
2021/05/29 05:48:51;;;;;;;;;;;13.60;77.20;;;;;;10570245;28;20006;-70
2021/05/29 05:53:53;;;;;;;;;;;13.10;91.90;;;;;;10570247;28;20307;-70
2021/05/29 05:58:56;;;;;;;;;;;12.70;99.80;;;;;;10576463;28;19928;-69
2021/05/29 06:03:57;;;;;;;;;;;12.30;99.90;;;;;;10577936;27;20034;-69
2021/05/29 06:08:59;;;;;;;;;;;12.10;99.90;;;;;;10577237;28;19924;-69
2021/05/29 06:19:24;;;;;;;;;;;11.70;99.90;;;;;;10577342;28;19930;-69
2021/05/29 06:24:28;;;;;;;;;;;11.60;99.90;;;;;;10576659;28;20413;-69
2021/05/29 06:29:29;;;;;;;;;;;11.90;99.90;;;;;;10577040;28;19934;-68
2021/05/29 06:34:31;;;;;;;;;;;11.90;99.90;;;;;;10576555;28;20438;-69
2021/05/29 06:39:33;;;;;;;;;;;11.90;99.90;;;;;;10576379;28;19924;-69
2021/05/29 06:44:35;;;;;;;;;;;12.10;99.90;;;;;;10576181;28;19924;-69
2021/05/29 06:49:38;;;;;;;;;;;12.10;99.90;;;;;;10574386;28;19924;-69
2021/05/29 06:59:48;;;;;;;;;;;12.70;99.90;;;;;;10575616;28;19965;-69
2021/05/29 07:04:51;;;;;;;;;;;12.90;99.90;;;;;;10575056;28;20565;-69
2021/05/29 07:09:53;;;;;;;;;;;13.10;99.90;;;;;;10574529;28;20019;-69
2021/05/29 07:14:55;;;;;;;;;;;13.50;99.90;;;;;;10575016;28;19936;-69
2021/05/29 07:19:57;;;;;;;;;;;13.80;99.90;;;;;;10574261;28;20018;-69
2021/05/29 07:24:59;;;;;;;;;;;14.30;99.90;;;;;;10575167;28;19927;-69
2021/05/29 07:30:07;;;;;;;;;;;15.40;99.90;;;;;;10573978;28;19934;-69
2021/05/29 07:35:09;;;;;;;;;;;17.20;99.70;;;;;;10574087;28;19930;-70
2021/05/29 07:40:11;;;;;;;;;;;19.50;90.90;;;;;;10592346;27;19933;-70
2021/05/29 07:45:13;;;;;;;;;;;21.20;73.00;;;;;;10592508;27;19930;-71
2021/05/29 07:50:15;;;;;;;;;;;21.70;69.10;;;;;;10569217;27;20287;-70
2021/05/29 07:55:17;;;;;;;;;;;21.20;63.10;;;;;;10606539;27;20006;-70
2021/05/29 08:00:23;;;;;;;;;;;21.40;63.20;;;;;;10578967;27;19924;-70
2021/05/29 08:05:25;;;;;;;;;;;22.00;58.20;;;;;;10571294;27;20314;-70
2021/05/29 08:10:27;;;;;;;;;;;22.20;56.30;;;;;;10585471;27;19924;-71
2021/05/29 08:15:29;;;;;;;;;;;21.90;56.60;;;;;;10613802;27;19930;-70
2021/05/29 08:20:31;;;;;;;;;;;22.10;53.90;;;;;;10576346;27;19931;-71
2021/05/29 08:25:33;;;;;;;;;;;22.00;53.70;;;;;;10571214;28;19924;-71
2021/05/29 08:30:35;;;;;;;;;;;21.60;52.80;;;;;;10570422;28;19923;-71
2021/05/29 08:35:37;;;;;;;;;;;21.90;53.00;;;;;;10571555;28;19930;-71
2021/05/29 08:40:39;;;;;;;;;;;21.90;52.90;;;;;;10569448;28;19923;-70
2021/05/29 08:45:41;;;;;;;;;;;21.40;52.10;;;;;;10570726;28;20442;-70
2021/05/29 08:56:03;;;;;;;;;;;22.00;51.10;;;;;;10570523;28;20020;-70
2021/05/29 09:01:05;;;;;;;;;;;21.70;52.50;;;;;;10571174;28;20018;-70
2021/05/29 09:06:08;;;;;;;;;;;21.80;53.40;;;;;;10537754;28;19924;-70
2021/05/29 09:11:10;;;;;;;;;;;22.10;51.90;;;;;;10569873;28;20027;-71
2021/05/29 09:16:12;;;;;;;;;;;21.40;51.20;;;;;;10570896;28;20011;-70
2021/05/29 09:21:23;;;;;;;;;;;21.50;51.00;;;;;;10570267;28;19927;-70
2021/05/29 09:26:40;;;;;;;;;;;21.50;51.10;;;;;;10570057;28;20005;-70
2021/05/29 09:32:08;;;;;;;;;;;21.40;51.10;;;;;;10573595;28;20095;-70
2021/05/29 09:37:17;;;;;;;;;;;21.80;49.30;;;;;;10576351;27;19967;-70
2021/05/29 09:42:25;;;;;;;;;;;21.90;50.30;;;;;;10578945;28;20397;-71
2021/05/29 09:47:28;;;;;;;;;;;22.10;49.90;;;;;;10577419;28;20011;-70
2021/05/29 09:52:29;;;;;;;;;;;22.00;49.60;;;;;;10576689;28;20293;-70
2021/05/29 09:57:31;;;;;;;;;;;22.20;49.80;;;;;;10578578;28;19927;-70
2021/05/29 10:02:33;;;;;;;;;;;22.70;48.40;;;;;;10577078;28;19928;-70
2021/05/29 10:07:41;;;;;;;;;;;22.10;48.30;;;;;;10576359;28;19928;-70
2021/05/29 10:12:43;;;;;;;;;;;21.00;51.10;;;;;;10576345;28;19946;-70
2021/05/29 10:17:45;;;;;;;;;;;20.80;52.10;;;;;;10576917;28;19951;-70
2021/05/29 10:22:48;;;;;;;;;;;21.50;51.30;;;;;;10575969;28;19923;-70
2021/05/29 10:27:51;;;;;;;;;;;20.90;52.30;;;;;;10576330;28;19923;-70
2021/05/29 10:33:11;;;;;;;;;;;20.80;50.80;;;;;;10575989;28;19923;-70
2021/05/29 10:38:13;;;;;;;;;;;21.60;49.30;;;;;;10575118;28;19930;-70
2021/05/29 10:43:16;;;;;;;;;;;22.20;49.20;;;;;;10575789;28;19934;-70
2021/05/29 10:48:22;;;;;;;;;;;22.00;49.90;;;;;;10574176;28;19932;-69
2021/05/29 10:53:36;;;;;;;;;;;21.00;49.00;;;;;;10574575;28;19924;-70
2021/05/29 10:58:57;;;;;;;;;;;20.60;49.70;;;;;;10575340;28;20014;-70
2021/05/29 11:04:23;;;;;;;;;;;20.80;50.10;;;;;;10574250;28;20086;-69
2021/05/29 11:09:27;;;;;;;;;;;21.00;49.80;;;;;;10575047;28;19930;-69
2021/05/29 11:14:48;;;;;;;;;;;20.90;49.50;;;;;;10574667;28;19924;-69
2021/05/29 11:20:02;;;;;;;;;;;20.60;49.40;;;;;;10573574;28;19927;-69
2021/05/29 11:25:04;;;;;;;;;;;20.90;48.60;;;;;;10573644;28;19946;-69
2021/05/29 11:30:08;;;;;;;;;;;21.30;46.50;;;;;;10573927;28;20066;-69
2021/05/29 11:35:19;;;;;;;;;;;21.00;46.40;;;;;;10574374;28;19923;-69
2021/05/29 11:40:21;;;;;;;;;;;20.60;47.70;;;;;;10572925;28;19924;-69
2021/05/29 11:45:23;;;;;;;;;;;20.60;47.00;;;;;;10572297;28;19924;-69
2021/05/29 11:50:25;;;;;;;;;;;21.10;47.00;;;;;;10572930;28;19932;-69
2021/05/29 11:55:27;;;;;;;;;;;20.60;45.60;;;;;;10571479;28;20310;-69
2021/05/29 12:00:29;;;;;;;;;;;20.50;45.60;;;;;;10571151;28;20294;-69
2021/05/29 12:05:38;;;;;;;;;;;20.20;47.90;;;;;;10572362;28;19934;-69
2021/05/29 12:10:47;;;;;;;;;;;20.00;48.70;;;;;;10572307;28;20018;-69
2021/05/29 12:16:08;;;;;;;;;;;20.50;47.30;;;;;;10572055;28;19930;-69
2021/05/29 12:21:09;;;;;;;;;;;20.90;47.00;;;;;;10570652;28;20377;-69
2021/05/29 12:26:11;;;;;;;;;;;21.30;45.10;;;;;;10571583;28;19934;-69
2021/05/29 12:31:13;;;;;;;;;;;21.40;46.30;;;;;;10571485;28;19934;-69
2021/05/29 12:36:15;;;;;;;;;;;21.80;44.50;;;;;;10570705;28;19953;-69
2021/05/29 12:41:22;;;;;;;;;;;21.90;43.70;;;;;;10570770;28;20369;-69
2021/05/29 12:46:24;;;;;;;;;;;20.90;43.90;;;;;;10571566;28;20003;-69
2021/05/29 12:51:36;;;;;;;;;;;21.40;44.70;;;;;;10570607;28;19973;-69
2021/05/29 12:56:58;;;;;;;;;;;22.40;43.20;;;;;;10570287;28;19934;-69
2021/05/29 13:02:07;;;;;;;;;;;22.60;42.10;;;;;;10570483;28;19923;-69
2021/05/29 13:07:27;;;;;;;;;;;22.10;40.00;;;;;;10576472;28;19981;-69
2021/05/29 13:12:29;;;;;;;;;;;21.30;41.90;;;;;;10577020;28;19954;-63
2021/05/29 13:17:31;;;;;;;;;;;20.60;43.80;;;;;;10565614;28;20011;-63
2021/05/29 13:22:34;;;;;;;;;;;20.60;42.80;;;;;;10577950;27;19927;-64
2021/05/29 13:27:40;;;;;;;;;;;21.10;44.40;;;;;;10578979;28;19934;-64
2021/05/29 13:32:43;;;;;;;;;;;21.20;42.20;;;;;;10578005;28;20181;-64
2021/05/29 13:37:45;;;;;;;;;;;20.90;41.10;;;;;;10576967;28;20151;-64
2021/05/29 13:42:47;;;;;;;;;;;20.90;42.70;;;;;;10576237;28;20379;-64
2021/05/29 13:47:49;;;;;;;;;;;20.70;42.80;;;;;;10577012;28;20435;-64
2021/05/29 13:52:51;;;;;;;;;;;20.60;42.50;;;;;;10577200;28;20306;-63
2021/05/29 13:57:53;;;;;;;;;;;20.10;43.00;;;;;;10576139;28;19986;-63
2021/05/29 14:02:56;;;;;;;;;;;20.00;43.20;;;;;;10577548;28;20388;-63
2021/05/29 14:07:58;;;;;;;;;;;20.00;43.30;;;;;;10576912;28;19923;-63
2021/05/29 14:13:00;;;;;;;;;;;20.10;44.30;;;;;;10575226;28;20379;-64
2021/05/29 14:18:02;;;;;;;;;;;20.40;44.10;;;;;;10575048;28;19976;-63
2021/05/29 14:23:04;;;;;;;;;;;20.80;42.80;;;;;;10576706;28;19938;-63
2021/05/29 14:28:06;;;;;;;;;;;20.90;43.30;;;;;;10575474;28;20468;-63
2021/05/29 14:33:08;;;;;;;;;;;20.80;43.10;;;;;;10574842;28;20259;-63
2021/05/29 14:38:10;;;;;;;;;;;20.70;43.70;;;;;;10575678;28;19928;-63
2021/05/29 14:43:12;;;;;;;;;;;20.40;43.20;;;;;;10575732;28;19928;-63
2021/05/29 14:48:14;;;;;;;;;;;20.30;43.90;;;;;;10575584;28;19974;-64
2021/05/29 14:53:18;;;;;;;;;;;20.50;43.50;;;;;;10574813;28;19928;-63
2021/05/29 14:58:20;;;;;;;;;;;20.90;42.10;;;;;;10574410;28;19967;-64
2021/05/29 15:03:22;;;;;;;;;;;20.90;41.10;;;;;;10574214;28;19934;-64
2021/05/29 15:08:24;;;;;;;;;;;21.00;42.10;;;;;;10574323;28;20360;-64
2021/05/29 15:13:26;;;;;;;;;;;20.80;41.00;;;;;;10573829;28;20040;-63
2021/05/29 15:18:28;;;;;;;;;;;20.70;41.60;;;;;;10569900;28;20040;-64
2021/05/29 15:23:31;;;;;;;;;;;21.20;42.10;;;;;;10577212;27;20450;-63
2021/05/29 15:28:33;;;;;;;;;;;21.80;40.80;;;;;;10597431;27;19930;-63
2021/05/29 15:33:35;;;;;;;;;;;22.70;40.20;;;;;;10575687;27;19923;-63
2021/05/29 15:38:37;;;;;;;;;;;22.80;38.80;;;;;;10562872;28;19927;-64
2021/05/29 15:43:39;;;;;;;;;;;23.00;40.60;;;;;;10571804;28;20390;-63
2021/05/29 15:48:41;;;;;;;;;;;22.80;40.10;;;;;;10570833;28;20126;-64
2021/05/29 15:53:43;;;;;;;;;;;22.30;40.40;;;;;;10596440;27;19928;-63
2021/05/29 15:58:45;;;;;;;;;;;21.60;42.20;;;;;;10570620;28;20018;-63
2021/05/29 16:03:47;;;;;;;;;;;21.00;42.50;;;;;;10561111;28;20291;-63
2021/05/29 16:08:49;;;;;;;;;;;20.70;44.40;;;;;;10569597;28;19924;-64
2021/05/29 16:13:51;;;;;;;;;;;20.40;47.10;;;;;;10571948;27;19924;-64
2021/05/29 16:18:53;;;;;;;;;;;20.10;48.60;;;;;;10582809;27;19956;-64
2021/05/29 16:23:57;;;;;;;;;;;19.90;48.50;;;;;;10574305;27;20020;-63
2021/05/29 16:29:00;;;;;;;;;;;19.80;49.50;;;;;;10588781;27;19924;-63
2021/05/29 16:34:02;;;;;;;;;;;19.50;48.50;;;;;;10582381;27;20014;-63
2021/05/29 16:39:05;;;;;;;;;;;19.10;47.40;;;;;;10565939;27;19930;-64
2021/05/29 16:44:07;;;;;;;;;;;19.10;48.00;;;;;;10594319;27;20010;-63
2021/05/29 16:49:09;;;;;;;;;;;19.00;47.60;;;;;;10568417;28;19927;-63
2021/05/29 16:54:13;;;;;;;;;;;18.80;48.10;;;;;;10563457;28;21330;-63
2021/05/29 16:59:14;;;;;;;;;;;18.80;48.40;;;;;;10571980;28;19931;-63
2021/05/29 17:04:16;;;;;;;;;;;18.80;48.20;;;;;;10567712;28;19932;-64
2021/05/29 17:09:23;;;;;;;;;;;18.90;49.30;;;;;;10568137;28;20426;-63
2021/05/29 17:14:25;;;;;;;;;;;19.00;48.90;;;;;;10575765;28;19973;-63
2021/05/29 17:19:26;;;;;;;;;;;19.20;49.50;;;;;;10612172;27;19927;-64
2021/05/29 17:24:28;;;;;;;;;;;19.30;50.10;;;;;;10577374;28;20093;-64
2021/05/29 17:29:30;;;;;;;;;;;19.10;50.80;;;;;;10573921;28;19928;-63
2021/05/29 17:34:33;;;;;;;;;;;18.80;50.60;;;;;;10586063;28;19930;-63
2021/05/29 17:39:35;;;;;;;;;;;18.70;51.20;;;;;;10582259;27;20244;-63
2021/05/29 17:44:38;;;;;;;;;;;18.70;51.80;;;;;;10564057;28;20397;-63
2021/05/29 17:49:41;;;;;;;;;;;18.70;51.60;;;;;;10549294;28;20272;-63
2021/05/29 17:54:42;;;;;;;;;;;18.60;52.40;;;;;;10583198;27;19928;-63
2021/05/29 18:00:08;;;;;;;;;;;18.50;53.10;;;;;;10575684;27;19974;-63
2021/05/29 18:05:11;;;;;;;;;;;18.30;52.80;;;;;;10559647;27;20392;-63
2021/05/29 18:10:13;;;;;;;;;;;18.20;53.10;;;;;;10575916;27;19924;-63
2021/05/29 18:15:17;;;;;;;;;;;18.20;53.30;;;;;;10576278;28;20018;-63
2021/05/29 18:20:19;;;;;;;;;;;18.10;53.90;;;;;;10574204;28;19927;-63
2021/05/29 18:25:21;;;;;;;;;;;18.10;54.70;;;;;;10555973;28;19924;-63
2021/05/29 18:30:27;;;;;;;;;;;18.00;54.40;;;;;;10575468;28;19931;-63
2021/05/29 18:35:29;;;;;;;;;;;18.00;55.70;;;;;;10575773;28;20402;-63
2021/05/29 18:40:31;;;;;;;;;;;18.00;55.20;;;;;;10546856;28;19924;-63
2021/05/29 18:45:33;;;;;;;;;;;17.80;55.80;;;;;;10600163;27;19924;-63
2021/05/29 18:50:35;;;;;;;;;;;17.70;56.00;;;;;;10581809;27;19930;-63
2021/05/29 18:55:37;;;;;;;;;;;17.80;56.30;;;;;;10561458;28;20364;-70
2021/05/29 19:11:01;;;;;;;;;;;17.20;57.20;;;;;;10574499;28;19968;-69
2021/05/29 19:16:04;;;;;;;;;;;17.00;57.10;;;;;;10572782;28;19977;-69
2021/05/29 19:21:09;;;;;;;;;;;16.80;58.20;;;;;;10574004;28;20402;-69
2021/05/29 19:26:37;;;;;;;;;;;16.80;58.00;;;;;;10573636;28;20474;-69
2021/05/29 19:42:04;;;;;;;;;;;16.50;58.70;;;;;;10570797;28;19950;-69
2021/05/29 19:47:29;;;;;;;;;;;16.30;59.90;;;;;;10572738;28;20433;-69
2021/05/29 20:29:35;;;;;;;;;;;14.60;66.10;;;;;;10595112;27;19930;-70
2021/05/29 20:39:58;;;;;;;;;;;14.30;68.20;;;;;;10570542;28;20394;-70
2021/05/29 20:45:00;;;;;;;;;;;14.20;66.10;;;;;;10570131;28;19923;-70
2021/05/29 20:50:03;;;;;;;;;;;14.10;67.00;;;;;;10570050;28;19930;-69
2021/05/29 20:55:05;;;;;;;;;;;14.00;67.50;;;;;;10568924;28;19924;-70
2021/05/29 21:00:07;;;;;;;;;;;13.90;70.00;;;;;;10569206;28;19927;-70
2021/05/29 21:05:09;;;;;;;;;;;13.80;68.40;;;;;;10569598;28;20165;-69
2021/05/29 21:10:11;;;;;;;;;;;13.70;69.90;;;;;;10568634;28;19930;-69
2021/05/29 21:15:18;;;;;;;;;;;13.50;70.50;;;;;;10569618;28;19930;-69
2021/05/29 21:25:50;;;;;;;;;;;13.20;76.40;;;;;;10516711;28;19941;-70
2021/05/29 21:30:52;;;;;;;;;;;13.00;78.30;;;;;;10576871;28;20034;-70
2021/05/29 21:35:54;;;;;;;;;;;12.80;81.70;;;;;;10578381;28;19931;-70
2021/05/29 21:40:56;;;;;;;;;;;12.80;85.90;;;;;;10576882;27;19930;-70
2021/05/29 21:51:18;;;;;;;;;;;12.00;87.40;;;;;;10577283;28;19934;-70
2021/05/29 21:56:20;;;;;;;;;;;12.00;88.90;;;;;;10577921;28;19928;-70
2021/05/29 22:01:24;;;;;;;;;;;11.80;91.00;;;;;;10579520;27;20167;-70
2021/05/29 22:06:26;;;;;;;;;;;11.90;92.90;;;;;;10610583;27;20355;-70
2021/05/29 22:12:07;;;;;;;;;;;11.80;94.90;;;;;;10574498;28;20371;-70
2021/05/29 22:32:43;;;;;;;;;;;11.60;99.90;;;;;;10582569;27;19930;-69
2021/05/29 22:37:45;;;;;;;;;;;11.50;99.90;;;;;;10589179;27;19924;-70
2021/05/29 22:42:47;;;;;;;;;;;11.40;99.90;;;;;;10574699;28;19924;-70
2021/05/29 22:47:49;;;;;;;;;;;11.30;99.90;;;;;;10573066;28;19924;-69
2021/05/29 22:52:52;;;;;;;;;;;11.10;99.90;;;;;;10574300;28;19924;-70
2021/05/29 22:57:54;;;;;;;;;;;11.10;99.90;;;;;;10572723;28;19923;-70
2021/05/29 23:02:55;;;;;;;;;;;11.10;99.90;;;;;;10573504;28;19924;-70
2021/05/29 23:07:58;;;;;;;;;;;11.10;99.90;;;;;;10575275;27;19958;-70
2021/05/29 23:13:00;;;;;;;;;;;11.00;99.90;;;;;;10596299;27;19961;-70
2021/05/29 23:18:01;;;;;;;;;;;10.90;99.90;;;;;;10571554;27;20424;-70
2021/05/29 23:23:04;;;;;;;;;;;10.90;99.90;;;;;;10584500;27;19924;-70
2021/05/29 23:28:07;;;;;;;;;;;10.80;99.90;;;;;;10590704;27;20014;-70
2021/05/29 23:33:08;;;;;;;;;;;10.80;99.90;;;;;;10583496;27;19998;-70
2021/05/29 23:38:10;;;;;;;;;;;10.70;99.90;;;;;;10582397;27;20008;-70
2021/05/29 23:43:12;;;;;;;;;;;10.40;99.90;;;;;;10573977;27;19924;-70
2021/05/29 23:48:14;;;;;;;;;;;10.40;99.90;;;;;;10571581;28;19928;-70
2021/05/29 23:53:16;;;;;;;;;;;10.40;99.90;;;;;;10575803;27;20018;-70
2021/05/29 23:58:19;;;;;;;;;;;10.30;99.90;;;;;;10588418;27;19928;-70
